Time;durP1;ratioP1;P1;durP2;ratioP2;P2;SDS_P1;SDS_P2;PMS_P1;PMS_P2;Temp;Humidity;BMP_temperature;BMP_pressure;BME280_temperature;BME280_humidity;BME280_pressure;Samples;Min_cycle;Max_cycle;Signal;HPM_P1;HPM_P2
2023/11/12 00:00:47;;;;;;;1.67;1.40;;;4.70;98.20;;;;;;4965985;28;20486;-79
2023/11/12 00:03:16;;;;;;;1.70;1.50;;;4.70;98.20;;;;;;4954207;28;21066;-79
2023/11/12 00:05:43;;;;;;;1.60;1.40;;;4.70;98.20;;;;;;4966211;28;20573;-78
2023/11/12 00:08:10;;;;;;;1.60;1.40;;;4.70;98.20;;;;;;4972220;28;20493;-79
2023/11/12 00:10:37;;;;;;;1.60;1.40;;;4.70;98.20;;;;;;4966470;28;20473;-79
2023/11/12 00:13:04;;;;;;;1.60;1.40;;;4.70;98.20;;;;;;4973167;28;20587;-79
2023/11/12 00:15:30;;;;;;;1.60;1.40;;;4.70;98.20;;;;;;4967620;28;20585;-79
2023/11/12 00:17:58;;;;;;;1.60;1.30;;;4.70;98.20;;;;;;4971850;28;21004;-79
2023/11/12 00:20:27;;;;;;;1.60;1.40;;;4.80;98.20;;;;;;4967418;28;20549;-79
2023/11/12 00:22:54;;;;;;;1.60;1.40;;;4.80;98.20;;;;;;4972022;28;20480;-80
2023/11/12 00:25:21;;;;;;;1.60;1.40;;;4.80;98.20;;;;;;4967814;28;20469;-79
2023/11/12 00:27:48;;;;;;;1.70;1.40;;;4.80;98.20;;;;;;4971225;28;20504;-79
2023/11/12 00:30:15;;;;;;;1.63;1.33;;;4.80;98.20;;;;;;4966676;28;20489;-80
2023/11/12 00:32:42;;;;;;;1.60;1.40;;;4.80;98.20;;;;;;4967617;28;20485;-79
2023/11/12 00:35:09;;;;;;;1.70;1.40;;;4.80;98.20;;;;;;4966266;28;21190;-80
2023/11/12 00:37:38;;;;;;;1.60;1.40;;;4.90;98.20;;;;;;4968475;28;20492;-80
2023/11/12 00:40:05;;;;;;;1.63;1.40;;;4.90;98.20;;;;;;4964770;28;20472;-81
2023/11/12 00:42:32;;;;;;;1.60;1.30;;;4.90;98.20;;;;;;4969368;28;20499;-81
2023/11/12 00:44:59;;;;;;;1.70;1.50;;;5.00;98.20;;;;;;4966413;28;20598;-82
2023/11/12 00:47:26;;;;;;;1.60;1.30;;;5.00;98.20;;;;;;4968914;28;20579;-83
2023/11/12 00:49:52;;;;;;;1.63;1.40;;;5.10;98.20;;;;;;4973986;28;20476;-81
2023/11/12 00:52:19;;;;;;;1.63;1.40;;;5.10;98.20;;;;;;4973907;28;20485;-82
2023/11/12 00:54:47;;;;;;;1.60;1.30;;;5.10;98.20;;;;;;4974461;28;20594;-82
2023/11/12 00:57:14;;;;;;;1.60;1.30;;;5.10;98.20;;;;;;4971758;28;20990;-82
2023/11/12 00:59:42;;;;;;;1.67;1.50;;;5.10;98.20;;;;;;4972939;28;21648;-83
2023/11/12 01:02:10;;;;;;;1.60;1.30;;;5.10;98.20;;;;;;4974232;28;20489;-83
2023/11/12 01:04:37;;;;;;;1.60;1.30;;;5.10;98.20;;;;;;4972483;28;20516;-82
2023/11/12 01:07:04;;;;;;;1.60;1.37;;;5.10;98.20;;;;;;4968535;28;20493;-83
2023/11/12 01:09:31;;;;;;;1.67;1.47;;;5.10;98.20;;;;;;4972423;28;20473;-82
2023/11/12 01:11:59;;;;;;;1.60;1.30;;;5.10;98.20;;;;;;4966862;28;20509;-82
2023/11/12 01:14:26;;;;;;;1.70;1.40;;;5.10;98.20;;;;;;4974847;28;20537;-82
2023/11/12 01:16:53;;;;;;;2.10;1.90;;;5.10;98.20;;;;;;4965529;28;20493;-81
2023/11/12 01:19:19;;;;;;;1.60;1.40;;;5.10;98.20;;;;;;4973736;28;20472;-81
2023/11/12 01:21:46;;;;;;;1.70;1.57;;;5.00;98.20;;;;;;4964297;28;20489;-81
2023/11/12 01:24:13;;;;;;;1.60;1.37;;;5.00;98.20;;;;;;4976024;28;20964;-81
2023/11/12 01:26:40;;;;;;;1.60;1.40;;;5.00;98.20;;;;;;4967217;28;21157;-81
2023/11/12 01:29:08;;;;;;;1.70;1.43;;;5.00;98.20;;;;;;4976097;28;20462;-82
2023/11/12 01:31:35;;;;;;;1.70;1.50;;;5.00;98.20;;;;;;4967308;28;20854;-80
2023/11/12 01:34:02;;;;;;;1.70;1.50;;;4.90;98.20;;;;;;4976955;28;20964;-80
2023/11/12 01:36:29;;;;;;;1.60;1.40;;;4.90;98.20;;;;;;4964122;28;20913;-80
2023/11/12 01:38:57;;;;;;;1.60;1.30;;;4.90;98.20;;;;;;4977924;28;20838;-80
2023/11/12 01:41:24;;;;;;;1.70;1.60;;;4.90;98.20;;;;;;4962358;28;20483;-79
2023/11/12 01:43:50;;;;;;;1.60;1.40;;;4.90;98.20;;;;;;4979369;28;20473;-80
2023/11/12 01:46:19;;;;;;;1.60;1.40;;;4.90;98.20;;;;;;4965799;28;20469;-80
2023/11/12 01:48:47;;;;;;;1.60;1.40;;;4.90;98.20;;;;;;4980760;28;20466;-80
2023/11/12 01:51:13;;;;;;;1.60;1.33;;;4.90;98.20;;;;;;4965070;28;20481;-80
2023/11/12 01:53:41;;;;;;;1.60;1.30;;;4.90;98.20;;;;;;4982122;28;20464;-79
2023/11/12 01:56:11;;;;;;;1.60;1.30;;;4.90;98.20;;;;;;4958698;28;20481;-79
2023/11/12 01:58:40;;;;;;;1.60;1.40;;;4.90;98.20;;;;;;4981932;28;20494;-79
2023/11/12 02:01:06;;;;;;;1.63;1.40;;;4.80;98.20;;;;;;4962522;28;21973;-80
2023/11/12 02:03:36;;;;;;;1.60;1.30;;;4.80;98.20;;;;;;4982465;28;20846;-80
2023/11/12 02:06:05;;;;;;;1.63;1.30;;;4.80;98.20;;;;;;4962027;28;20858;-80
2023/11/12 02:08:32;;;;;;;1.63;1.30;;;4.80;98.20;;;;;;4982276;28;20966;-79
2023/11/12 02:11:03;;;;;;;1.60;1.50;;;4.80;98.20;;;;;;4960915;28;20472;-80
2023/11/12 02:13:30;;;;;;;1.60;1.37;;;4.80;98.20;;;;;;4983924;28;20466;-79
2023/11/12 02:15:57;;;;;;;1.60;1.40;;;4.80;98.20;;;;;;4959140;28;21092;-80
2023/11/12 02:18:24;;;;;;;1.67;1.43;;;4.80;98.20;;;;;;4981281;28;21120;-80
2023/11/12 02:20:52;;;;;;;1.60;1.30;;;4.80;98.20;;;;;;4960471;28;20468;-79
2023/11/12 02:23:19;;;;;;;1.60;1.37;;;4.80;98.20;;;;;;4984824;28;20496;-81
2023/11/12 02:25:47;;;;;;;1.67;1.40;;;4.80;98.20;;;;;;4970834;28;20504;-80
2023/11/12 02:28:15;;;;;;;1.60;1.30;;;4.80;98.20;;;;;;4953465;28;20492;-79
2023/11/12 02:30:42;;;;;;;1.70;1.40;;;4.70;98.20;;;;;;4967808;28;20980;-79
2023/11/12 02:33:10;;;;;;;1.70;1.40;;;4.70;98.20;;;;;;4973750;28;20990;-80
2023/11/12 02:35:42;;;;;;;1.60;1.30;;;4.70;98.20;;;;;;4970167;28;20462;-79
2023/11/12 02:38:10;;;;;;;1.63;1.40;;;4.70;98.20;;;;;;4975378;28;20912;-79
2023/11/12 02:40:37;;;;;;;1.70;1.50;;;4.70;98.20;;;;;;4969751;28;20496;-79
2023/11/12 02:43:05;;;;;;;1.63;1.30;;;4.60;98.20;;;;;;4975794;28;20477;-78
2023/11/12 02:45:32;;;;;;;1.60;1.40;;;4.60;98.20;;;;;;4970825;28;20480;-79
2023/11/12 02:47:58;;;;;;;1.67;1.40;;;4.60;98.20;;;;;;4976205;28;20497;-80
2023/11/12 02:50:30;;;;;;;1.63;1.40;;;4.60;98.20;;;;;;4972219;28;20469;-79
2023/11/12 02:52:59;;;;;;;1.67;1.40;;;4.60;98.20;;;;;;4975184;28;20587;-79
2023/11/12 02:55:27;;;;;;;1.60;1.30;;;4.50;98.20;;;;;;4969487;28;20498;-79
2023/11/12 02:57:54;;;;;;;1.60;1.40;;;4.50;98.20;;;;;;4974679;28;20489;-79
2023/11/12 03:00:24;;;;;;;1.63;1.40;;;4.50;98.20;;;;;;4970508;28;21037;-79
2023/11/12 03:02:51;;;;;;;1.70;1.40;;;4.50;98.20;;;;;;4973490;28;20481;-79
2023/11/12 03:05:17;;;;;;;1.67;1.43;;;4.60;98.20;;;;;;4970700;28;20462;-80
2023/11/12 03:07:44;;;;;;;1.60;1.37;;;4.60;98.20;;;;;;4974334;28;20488;-80
2023/11/12 03:10:11;;;;;;;1.60;1.40;;;4.70;98.20;;;;;;4971009;28;20462;-80
2023/11/12 03:12:39;;;;;;;1.60;1.30;;;4.70;98.20;;;;;;4975075;28;20469;-81
2023/11/12 03:15:07;;;;;;;1.60;1.37;;;4.80;98.20;;;;;;4978552;28;20468;-83
2023/11/12 03:17:36;;;;;;;1.60;1.30;;;4.80;98.20;;;;;;4982529;28;20567;-82
2023/11/12 03:20:06;;;;;;;1.70;1.50;;;4.90;98.20;;;;;;4982480;28;20489;-81
2023/11/12 03:22:34;;;;;;;2.03;1.83;;;4.90;98.20;;;;;;4976109;28;20476;-81
2023/11/12 03:25:01;;;;;;;1.63;1.40;;;5.00;98.20;;;;;;4971078;28;20476;-81
2023/11/12 03:27:30;;;;;;;1.60;1.40;;;5.00;98.20;;;;;;4973417;28;20556;-81
2023/11/12 03:29:58;;;;;;;1.70;1.60;;;5.00;98.20;;;;;;4971982;28;20508;-82
2023/11/12 03:32:25;;;;;;;1.70;1.40;;;5.10;98.20;;;;;;4972024;28;20500;-80
2023/11/12 03:34:53;;;;;;;1.60;1.30;;;5.10;98.20;;;;;;4971346;28;20484;-81
2023/11/12 03:37:20;;;;;;;1.60;1.30;;;5.10;98.20;;;;;;4971054;28;20489;-80
2023/11/12 03:39:48;;;;;;;1.60;1.30;;;5.10;98.20;;;;;;4973774;28;20965;-80
2023/11/12 03:42:15;;;;;;;1.67;1.40;;;5.10;98.20;;;;;;4970610;28;20479;-79
2023/11/12 03:44:42;;;;;;;1.60;1.30;;;5.10;98.20;;;;;;4973056;28;20473;-79
2023/11/12 03:47:12;;;;;;;1.60;1.40;;;5.20;98.20;;;;;;4969714;28;20501;-81
2023/11/12 03:49:40;;;;;;;1.63;1.40;;;5.20;98.20;;;;;;4972791;28;20557;-79
2023/11/12 03:52:07;;;;;;;1.70;1.40;;;5.20;98.20;;;;;;4967687;28;20520;-79
2023/11/12 03:54:36;;;;;;;1.60;1.37;;;5.10;98.20;;;;;;4974422;28;20477;-79
2023/11/12 03:57:03;;;;;;;1.60;1.30;;;5.20;98.20;;;;;;4965767;28;20485;-80
2023/11/12 03:59:30;;;;;;;1.63;1.30;;;5.20;98.20;;;;;;4974778;28;20466;-80
2023/11/12 04:01:56;;;;;;;1.67;1.40;;;5.20;98.20;;;;;;4967582;28;20832;-80
2023/11/12 04:04:23;;;;;;;1.70;1.33;;;5.20;98.20;;;;;;4974797;28;20583;-79
2023/11/12 04:06:50;;;;;;;1.70;1.40;;;5.20;98.20;;;;;;4966804;28;20497;-79
2023/11/12 04:09:18;;;;;;;1.60;1.30;;;5.20;98.20;;;;;;4975005;28;20549;-79
2023/11/12 04:11:45;;;;;;;1.60;1.30;;;5.20;98.20;;;;;;4965717;28;20564;-79
2023/11/12 04:14:12;;;;;;;1.60;1.30;;;5.20;98.20;;;;;;4976298;28;20901;-79
2023/11/12 04:16:40;;;;;;;1.60;1.30;;;5.20;98.20;;;;;;4961161;28;20486;-79
2023/11/12 04:19:08;;;;;;;1.60;1.30;;;5.20;98.20;;;;;;4976204;28;20928;-79
2023/11/12 04:21:34;;;;;;;1.60;1.40;;;5.20;98.20;;;;;;4964377;28;20891;-80
2023/11/12 04:24:01;;;;;;;1.60;1.30;;;5.20;98.20;;;;;;4979118;28;20842;-79
2023/11/12 04:26:31;;;;;;;1.60;1.30;;;5.20;98.20;;;;;;4960288;28;21004;-79
2023/11/12 04:28:57;;;;;;;1.60;1.40;;;5.20;98.20;;;;;;4978337;28;20458;-79
2023/11/12 04:31:24;;;;;;;1.67;1.37;;;5.20;98.20;;;;;;4963344;28;20849;-80
2023/11/12 04:33:52;;;;;;;1.70;1.50;;;5.20;98.20;;;;;;4978139;28;20857;-79
2023/11/12 04:36:19;;;;;;;1.67;1.40;;;5.20;98.20;;;;;;4963524;28;20933;-80
2023/11/12 04:38:46;;;;;;;1.70;1.43;;;5.20;98.20;;;;;;4980071;28;20482;-80
2023/11/12 04:41:13;;;;;;;1.67;1.40;;;5.20;98.20;;;;;;4962187;28;20477;-79
2023/11/12 04:43:41;;;;;;;1.63;1.40;;;5.20;98.20;;;;;;4978659;28;20489;-80
2023/11/12 04:46:08;;;;;;;1.60;1.40;;;5.20;98.20;;;;;;4961376;28;20904;-79
2023/11/12 04:48:34;;;;;;;1.60;1.30;;;5.30;98.20;;;;;;4980361;28;20864;-79
2023/11/12 04:51:01;;;;;;;1.60;1.30;;;5.30;98.20;;;;;;4962407;28;20469;-79
2023/11/12 04:53:28;;;;;;;1.67;1.40;;;5.30;98.20;;;;;;4980672;28;20462;-79
2023/11/12 04:55:55;;;;;;;1.67;1.40;;;5.30;98.20;;;;;;4956372;28;20462;-80
2023/11/12 04:58:21;;;;;;;1.67;1.30;;;5.30;98.20;;;;;;4980348;28;20493;-79
2023/11/12 05:00:50;;;;;;;1.63;1.30;;;5.30;98.20;;;;;;4960324;28;20465;-79
2023/11/12 05:03:17;;;;;;;1.70;1.40;;;5.30;98.20;;;;;;4981444;28;20482;-79
2023/11/12 05:05:43;;;;;;;1.67;1.40;;;5.30;98.20;;;;;;4958721;28;21331;-79
2023/11/12 05:08:10;;;;;;;1.67;1.40;;;5.30;98.20;;;;;;4972639;28;20489;-79
2023/11/12 05:10:37;;;;;;;1.63;1.30;;;5.30;98.20;;;;;;4968262;28;20498;-80
2023/11/12 05:13:04;;;;;;;1.70;1.50;;;5.30;98.20;;;;;;4970199;28;20487;-80
2023/11/12 05:15:30;;;;;;;1.70;1.40;;;5.20;98.20;;;;;;4970350;28;20470;-80
2023/11/12 05:18:05;;;;;;;1.70;1.60;;;5.20;98.20;;;;;;4973568;28;21185;-80
2023/11/12 05:20:33;;;;;;;1.70;1.40;;;5.20;98.20;;;;;;4971734;28;20476;-79
2023/11/12 05:23:01;;;;;;;1.70;1.40;;;5.20;98.20;;;;;;4976527;28;20572;-79
2023/11/12 05:25:27;;;;;;;1.60;1.27;;;5.10;98.20;;;;;;4968888;28;20518;-79
2023/11/12 05:27:54;;;;;;;1.70;1.50;;;5.10;98.20;;;;;;4973459;28;20506;-80
2023/11/12 05:30:22;;;;;;;1.70;1.40;;;5.00;98.20;;;;;;4973943;28;21146;-79
2023/11/12 05:32:49;;;;;;;1.70;1.40;;;5.00;98.20;;;;;;4977263;28;20568;-79
2023/11/12 05:35:18;;;;;;;1.70;1.47;;;4.90;98.20;;;;;;4972223;28;20964;-78
2023/11/12 05:37:45;;;;;;;1.60;1.30;;;4.80;98.20;;;;;;4964007;28;20492;-79
2023/11/12 05:40:13;;;;;;;1.60;1.30;;;4.80;98.20;;;;;;4952882;28;20467;-79
2023/11/12 05:42:40;;;;;;;1.63;1.40;;;4.80;98.20;;;;;;4955521;28;20858;-78
2023/11/12 05:45:07;;;;;;;1.70;1.40;;;4.80;98.20;;;;;;4952220;28;20463;-79
2023/11/12 05:47:34;;;;;;;1.60;1.40;;;4.70;98.20;;;;;;4970570;28;20491;-78
2023/11/12 05:50:01;;;;;;;1.60;1.30;;;4.70;98.20;;;;;;4976315;28;20777;-78
2023/11/12 05:52:29;;;;;;;1.63;1.40;;;4.70;98.20;;;;;;4974952;28;20523;-78
2023/11/12 05:54:56;;;;;;;1.70;1.47;;;4.60;98.20;;;;;;4972311;28;20465;-79
2023/11/12 05:57:23;;;;;;;1.70;1.50;;;4.60;98.20;;;;;;4973835;28;20921;-78
2023/11/12 05:59:50;;;;;;;1.60;1.40;;;4.60;98.20;;;;;;4974006;28;20469;-78
2023/11/12 06:02:17;;;;;;;1.70;1.43;;;4.50;98.20;;;;;;4961253;28;20496;-79
2023/11/12 06:04:43;;;;;;;1.63;1.30;;;4.50;98.20;;;;;;4952900;28;20975;-78
2023/11/12 06:07:10;;;;;;;1.63;1.40;;;4.50;98.20;;;;;;4953255;28;20473;-78
2023/11/12 06:09:38;;;;;;;1.70;1.50;;;4.50;98.20;;;;;;4957126;28;20458;-79
2023/11/12 06:12:07;;;;;;;1.60;1.30;;;4.40;98.20;;;;;;4954319;28;20505;-78
2023/11/12 06:14:36;;;;;;;1.67;1.47;;;4.40;98.20;;;;;;4957241;28;20486;-78
2023/11/12 06:17:04;;;;;;;1.70;1.50;;;4.40;98.20;;;;;;4962423;28;20497;-78
2023/11/12 06:19:31;;;;;;;1.60;1.30;;;4.40;98.20;;;;;;4977060;28;20457;-78
2023/11/12 06:21:57;;;;;;;1.70;1.50;;;4.40;98.20;;;;;;4970033;28;20560;-78
2023/11/12 06:24:24;;;;;;;1.70;1.50;;;4.40;98.20;;;;;;4977574;28;20560;-78
2023/11/12 06:26:52;;;;;;;1.63;1.40;;;4.40;98.20;;;;;;4968893;28;20517;-79
2023/11/12 06:29:20;;;;;;;1.70;1.43;;;4.30;98.20;;;;;;4978880;28;20476;-78
2023/11/12 06:31:46;;;;;;;1.70;1.60;;;4.30;98.20;;;;;;4960329;28;20560;-78
2023/11/12 06:34:13;;;;;;;1.60;1.40;;;4.30;98.20;;;;;;4959851;28;20846;-78
2023/11/12 06:36:40;;;;;;;1.70;1.50;;;4.30;98.20;;;;;;4949306;28;20478;-79
2023/11/12 06:39:07;;;;;;;1.70;1.53;;;4.30;98.20;;;;;;4960773;28;20463;-78
2023/11/12 06:41:34;;;;;;;1.60;1.30;;;4.30;98.20;;;;;;4949842;28;20478;-79
2023/11/12 06:44:03;;;;;;;1.60;1.40;;;4.30;98.20;;;;;;4961241;28;21039;-78
2023/11/12 06:46:29;;;;;;;1.70;1.40;;;4.30;98.20;;;;;;4958482;28;20532;-78
2023/11/12 06:48:56;;;;;;;1.70;1.40;;;4.30;98.20;;;;;;4978712;28;20466;-79
2023/11/12 06:51:23;;;;;;;1.63;1.40;;;4.30;98.20;;;;;;4963332;28;20472;-77
2023/11/12 06:53:50;;;;;;;1.63;1.40;;;4.30;98.20;;;;;;4980911;28;20461;-80
2023/11/12 06:56:17;;;;;;;1.70;1.57;;;4.30;98.20;;;;;;4964249;28;20465;-80
2023/11/12 06:58:44;;;;;;;1.67;1.40;;;4.30;98.20;;;;;;4981755;28;20491;-77
2023/11/12 07:01:12;;;;;;;1.60;1.40;;;4.30;98.20;;;;;;4960633;28;20773;-79
2023/11/12 07:03:39;;;;;;;1.70;1.40;;;4.30;98.20;;;;;;4969224;28;20489;-78
2023/11/12 07:06:06;;;;;;;1.60;1.40;;;4.30;98.20;;;;;;4962610;28;20464;-78
2023/11/12 07:08:33;;;;;;;1.67;1.40;;;4.30;98.20;;;;;;4983507;28;20508;-78
2023/11/12 07:11:00;;;;;;;1.60;1.40;;;4.30;98.20;;;;;;4960316;28;20469;-79
2023/11/12 07:13:27;;;;;;;1.63;1.40;;;4.30;98.20;;;;;;4983605;28;20687;-79
2023/11/12 07:15:54;;;;;;;1.63;1.30;;;4.30;98.20;;;;;;4960109;28;20947;-78
2023/11/12 07:18:23;;;;;;;1.63;1.40;;;4.30;98.20;;;;;;4982544;28;20667;-77
2023/11/12 07:20:50;;;;;;;1.67;1.40;;;4.30;98.20;;;;;;4962915;28;20965;-79
2023/11/12 07:23:16;;;;;;;1.60;1.40;;;4.30;98.20;;;;;;4985557;28;20482;-79
2023/11/12 07:25:43;;;;;;;1.63;1.47;;;4.40;98.20;;;;;;4966284;28;20458;-79
2023/11/12 07:28:10;;;;;;;1.63;1.30;;;4.40;98.20;;;;;;4972335;28;21013;-77
2023/11/12 07:30:37;;;;;;;1.70;1.50;;;4.40;98.20;;;;;;4968641;28;20458;-79
2023/11/12 07:33:05;;;;;;;1.63;1.30;;;4.50;98.20;;;;;;4955486;28;21170;-80
2023/11/12 07:35:34;;;;;;;1.60;1.40;;;4.50;98.20;;;;;;4951074;28;20463;-79
2023/11/12 07:38:00;;;;;;;1.70;1.50;;;4.60;98.20;;;;;;4955936;28;20492;-79
2023/11/12 07:40:27;;;;;;;3.40;3.20;;;4.70;98.20;;;;;;4950256;28;20466;-77
2023/11/12 07:42:55;;;;;;;1.67;1.40;;;4.80;98.20;;;;;;4954807;28;20486;-78
2023/11/12 07:45:22;;;;;;;1.70;1.40;;;4.90;98.20;;;;;;4949898;28;20467;-78
2023/11/12 07:47:48;;;;;;;1.60;1.30;;;5.00;98.20;;;;;;4955792;28;20498;-77
2023/11/12 07:50:15;;;;;;;1.63;1.40;;;5.00;98.20;;;;;;4946900;28;20474;-78
2023/11/12 07:52:43;;;;;;;1.63;1.30;;;5.10;98.20;;;;;;4952545;28;20478;-78
2023/11/12 07:55:11;;;;;;;1.60;1.40;;;5.20;98.20;;;;;;4951154;28;20463;-78
2023/11/12 07:57:38;;;;;;;1.67;1.30;;;5.30;98.20;;;;;;4953746;28;21031;-78
2023/11/12 08:00:06;;;;;;;1.60;1.33;;;5.40;98.20;;;;;;4952094;28;20830;-79
2023/11/12 08:02:33;;;;;;;1.60;1.30;;;5.50;98.20;;;;;;4953974;28;20482;-78
2023/11/12 08:05:03;;;;;;;1.67;1.30;;;5.60;98.20;;;;;;4949571;28;20490;-79
2023/11/12 08:07:29;;;;;;;1.60;1.30;;;5.60;98.20;;;;;;4951565;28;21088;-78
2023/11/12 08:09:58;;;;;;;1.67;1.37;;;5.70;98.20;;;;;;4951267;28;20956;-78
2023/11/12 08:12:24;;;;;;;1.70;1.47;;;5.80;98.20;;;;;;4951399;28;20508;-79
2023/11/12 08:14:51;;;;;;;1.63;1.30;;;5.90;98.20;;;;;;4949654;28;20845;-79
2023/11/12 08:17:18;;;;;;;1.60;1.30;;;6.00;98.20;;;;;;4952842;28;20485;-81
2023/11/12 08:19:45;;;;;;;1.67;1.33;;;6.10;98.20;;;;;;4952550;28;20467;-80
2023/11/12 08:22:12;;;;;;;1.60;1.30;;;6.20;98.20;;;;;;4949638;28;20497;-80
2023/11/12 08:24:39;;;;;;;1.63;1.30;;;6.20;98.20;;;;;;4955985;28;20582;-82
2023/11/12 08:27:07;;;;;;;1.70;1.30;;;6.30;98.20;;;;;;4949379;28;20493;-81
2023/11/12 08:29:36;;;;;;;1.60;1.30;;;6.30;98.20;;;;;;4953750;28;20467;-80
2023/11/12 08:32:03;;;;;;;1.63;1.30;;;6.40;98.20;;;;;;4949374;28;20823;-78
2023/11/12 08:34:29;;;;;;;1.60;1.30;;;6.50;98.20;;;;;;4956724;28;20495;-80
2023/11/12 08:36:56;;;;;;;1.60;1.30;;;6.50;98.20;;;;;;4951626;28;20486;-80
2023/11/12 08:39:24;;;;;;;1.67;1.37;;;6.60;98.20;;;;;;4956697;28;20505;-79
2023/11/12 08:41:52;;;;;;;1.60;1.27;;;6.70;98.20;;;;;;4947953;28;20474;-79
2023/11/12 08:44:21;;;;;;;1.70;1.50;;;6.70;98.20;;;;;;4955522;28;21165;-78
2023/11/12 08:46:48;;;;;;;1.67;1.30;;;6.80;98.20;;;;;;4946958;28;20540;-79
2023/11/12 08:49:14;;;;;;;1.67;1.30;;;6.80;98.20;;;;;;4956967;28;20549;-79
2023/11/12 08:51:41;;;;;;;1.67;1.30;;;6.90;98.20;;;;;;4946248;28;20473;-79
2023/11/12 08:54:09;;;;;;;2.90;2.70;;;6.90;98.20;;;;;;4955446;28;20554;-79
2023/11/12 08:56:36;;;;;;;1.60;1.20;;;7.00;98.20;;;;;;4945713;28;20488;-79
2023/11/12 08:59:03;;;;;;;1.60;1.20;;;7.10;98.20;;;;;;4951609;28;20758;-79
2023/11/12 09:01:35;;;;;;;1.70;1.40;;;7.20;98.20;;;;;;4946366;28;20493;-78
2023/11/12 09:04:02;;;;;;;1.60;1.30;;;7.20;98.20;;;;;;4954462;28;20497;-79
2023/11/12 09:06:29;;;;;;;1.60;1.20;;;7.30;98.20;;;;;;4941993;28;20518;-79
2023/11/12 09:08:56;;;;;;;1.70;1.30;;;7.30;98.20;;;;;;4955815;28;20533;-79
2023/11/12 09:11:23;;;;;;;1.60;1.30;;;7.40;98.20;;;;;;4940635;28;20548;-76
2023/11/12 09:13:51;;;;;;;1.70;1.30;;;7.40;98.20;;;;;;4956339;28;20522;-77
2023/11/12 09:16:18;;;;;;;1.67;1.30;;;7.50;98.20;;;;;;4940360;28;20474;-78
2023/11/12 09:18:46;;;;;;;1.63;1.30;;;7.50;98.20;;;;;;4958377;28;20557;-76
2023/11/12 09:21:13;;;;;;;1.67;1.20;;;7.60;98.20;;;;;;4939369;28;20512;-77
2023/11/12 09:23:40;;;;;;;1.70;1.40;;;7.70;98.20;;;;;;4958762;28;20600;-78
2023/11/12 09:26:08;;;;;;;1.60;1.30;;;7.70;98.20;;;;;;4939199;28;20485;-78
2023/11/12 09:28:35;;;;;;;1.70;1.30;;;7.80;98.20;;;;;;4957809;28;20505;-79
2023/11/12 09:31:02;;;;;;;1.60;1.20;;;7.80;98.20;;;;;;4938539;28;20470;-78
2023/11/12 09:33:30;;;;;;;1.67;1.37;;;7.80;98.20;;;;;;4960131;28;20942;-78
2023/11/12 09:35:58;;;;;;;1.70;1.50;;;7.80;98.20;;;;;;4937855;28;20470;-80
2023/11/12 09:38:25;;;;;;;1.70;1.40;;;7.80;98.20;;;;;;4968176;28;20486;-79
2023/11/12 09:40:55;;;;;;;1.60;1.27;;;7.80;98.20;;;;;;4937385;28;21041;-79
2023/11/12 09:43:25;;;;;;;1.60;1.20;;;7.70;98.20;;;;;;4960915;28;20467;-79
2023/11/12 09:45:56;;;;;;;1.60;1.20;;;7.70;98.20;;;;;;4935134;28;20982;-80
2023/11/12 09:48:30;;;;;;;1.63;1.20;;;7.60;98.20;;;;;;4965698;28;20494;-79
2023/11/12 09:50:59;;;;;;;1.60;1.30;;;7.60;98.20;;;;;;4949369;28;20469;-79
2023/11/12 09:53:27;;;;;;;1.67;1.30;;;7.60;98.20;;;;;;4966634;28;20466;-79
2023/11/12 09:55:55;;;;;;;1.70;1.30;;;7.70;98.20;;;;;;4942602;28;20478;-79
2023/11/12 09:58:22;;;;;;;1.60;1.20;;;7.60;98.20;;;;;;4980014;28;20492;-80
2023/11/12 10:00:50;;;;;;;1.63;1.20;;;7.60;98.20;;;;;;4955290;28;20549;-79
2023/11/12 10:03:18;;;;;;;1.60;1.27;;;7.60;98.20;;;;;;4980858;28;20555;-80
2023/11/12 10:05:45;;;;;;;1.60;1.20;;;7.60;98.20;;;;;;4968418;28;20505;-80
2023/11/12 10:08:14;;;;;;;1.70;1.30;;;7.70;98.20;;;;;;4959083;28;20576;-79
2023/11/12 10:10:42;;;;;;;1.60;1.20;;;7.70;98.20;;;;;;4969261;28;20484;-79
2023/11/12 10:13:11;;;;;;;1.63;1.30;;;7.70;98.20;;;;;;4972878;28;20485;-79
2023/11/12 10:15:43;;;;;;;1.60;1.20;;;7.70;98.20;;;;;;4965870;28;20458;-79
2023/11/12 10:18:10;;;;;;;1.63;1.20;;;7.90;98.20;;;;;;4974146;28;20490;-80
2023/11/12 10:20:39;;;;;;;1.60;1.20;;;8.00;98.20;;;;;;4969456;28;20817;-80
2023/11/12 10:23:18;;;;;;;1.70;1.30;;;8.10;98.20;;;;;;4974640;28;20489;-79
2023/11/12 10:25:48;;;;;;;1.60;1.20;;;8.20;98.20;;;;;;4967640;28;20548;-79
2023/11/12 10:28:15;;;;;;;3.50;3.20;;;8.40;98.20;;;;;;4956747;28;20496;-80
2023/11/12 10:30:46;;;;;;;1.60;1.20;;;8.50;98.20;;;;;;4968483;28;20468;-80
2023/11/12 10:33:23;;;;;;;1.63;1.20;;;8.50;98.20;;;;;;4957903;28;20490;-80
2023/11/12 10:35:51;;;;;;;1.60;1.20;;;8.60;98.20;;;;;;4957893;28;20556;-80
2023/11/12 10:38:18;;;;;;;1.60;1.20;;;8.70;98.20;;;;;;4982569;28;20481;-80
2023/11/12 10:41:03;;;;;;;1.70;1.30;;;8.70;98.20;;;;;;4966031;28;20938;-80
2023/11/12 10:43:31;;;;;;;1.70;1.50;;;8.80;98.20;;;;;;4961261;28;20473;-80
2023/11/12 10:45:59;;;;;;;1.63;1.30;;;8.90;98.20;;;;;;4959736;28;21012;-80
2023/11/12 10:48:33;;;;;;;1.60;1.30;;;8.90;98.20;;;;;;4982345;28;20977;-80
2023/11/12 10:51:01;;;;;;;1.60;1.10;;;9.00;98.20;;;;;;4959062;28;20510;-81
2023/11/12 10:53:28;;;;;;;1.60;1.10;;;9.10;98.20;;;;;;4962610;28;20463;-80
2023/11/12 10:55:57;;;;;;;1.67;1.10;;;9.10;98.20;;;;;;4939877;28;21056;-80
2023/11/12 10:58:26;;;;;;;1.60;1.20;;;9.10;98.20;;;;;;4954486;28;20507;-81
2023/11/12 11:00:57;;;;;;;2.33;2.13;;;9.10;98.20;;;;;;4940663;28;20475;-81
2023/11/12 11:03:27;;;;;;;1.60;1.20;;;9.20;98.20;;;;;;4962586;28;20478;-81
2023/11/12 11:05:55;;;;;;;1.60;1.20;;;9.20;98.20;;;;;;4940548;28;20487;-80
2023/11/12 11:08:22;;;;;;;1.60;1.17;;;9.30;98.20;;;;;;4961263;28;21100;-80
2023/11/12 11:10:49;;;;;;;1.60;1.20;;;9.30;98.20;;;;;;4939750;28;20978;-81
2023/11/12 11:13:16;;;;;;;1.60;1.10;;;9.30;98.20;;;;;;4964368;28;20471;-80
2023/11/12 11:15:47;;;;;;;1.67;1.20;;;9.40;98.20;;;;;;4948990;28;20459;-81
2023/11/12 11:18:48;;;;;;;1.60;1.10;;;9.50;98.20;;;;;;4940182;28;20842;-81
2023/11/12 11:21:16;;;;;;;1.60;1.10;;;9.50;98.20;;;;;;4945751;28;20519;-80
2023/11/12 11:23:46;;;;;;;1.60;1.10;;;9.50;98.20;;;;;;4985040;28;20472;-80
2023/11/12 11:26:30;;;;;;;1.60;1.10;;;9.50;98.20;;;;;;4963256;28;20466;-79
2023/11/12 11:29:14;;;;;;;1.60;1.10;;;9.50;98.20;;;;;;4960540;28;20509;-81
2023/11/12 11:32:17;;;;;;;1.60;1.20;;;9.60;98.20;;;;;;4948034;28;20482;-82
2023/11/12 11:34:45;;;;;;;1.60;1.20;;;9.60;98.20;;;;;;4966529;28;20490;-82
2023/11/12 11:37:12;;;;;;;1.60;1.20;;;9.70;98.20;;;;;;4964774;28;20481;-80
2023/11/12 11:39:39;;;;;;;1.60;1.20;;;9.80;98.20;;;;;;4955656;28;20514;-82
2023/11/12 11:42:16;;;;;;;1.60;1.10;;;9.90;98.20;;;;;;4949322;28;21058;-80
2023/11/12 11:44:44;;;;;;;1.60;1.20;;;10.00;98.20;;;;;;4952632;28;20486;-80
2023/11/12 11:47:14;;;;;;;1.60;1.10;;;10.00;98.20;;;;;;4949962;28;20501;-81
2023/11/12 11:49:44;;;;;;;1.60;1.10;;;10.10;98.20;;;;;;4953749;28;20466;-80
2023/11/12 11:52:17;;;;;;;1.60;1.10;;;10.10;98.20;;;;;;4949540;28;20482;-79
2023/11/12 11:54:44;;;;;;;1.60;1.10;;;10.30;98.20;;;;;;4951250;28;20494;-79
2023/11/12 11:57:14;;;;;;;1.60;1.10;;;10.30;98.20;;;;;;4941584;28;20573;-80
2023/11/12 11:59:43;;;;;;;1.60;1.20;;;10.30;98.20;;;;;;4950529;28;20594;-80
2023/11/12 12:02:15;;;;;;;1.60;1.10;;;10.40;98.20;;;;;;4948687;28;20831;-80
2023/11/12 12:04:47;;;;;;;1.60;1.10;;;10.40;98.20;;;;;;4951350;28;20662;-79
2023/11/12 12:07:25;;;;;;;1.60;1.00;;;10.50;98.20;;;;;;4946126;28;20771;-80
2023/11/12 12:09:54;;;;;;;1.60;1.10;;;10.40;98.20;;;;;;4948226;28;20742;-79
2023/11/12 12:12:22;;;;;;;2.90;2.70;;;10.40;98.20;;;;;;4948934;28;20493;-79
2023/11/12 12:14:49;;;;;;;1.60;1.10;;;10.30;98.20;;;;;;4950008;28;20477;-78
2023/11/12 12:17:17;;;;;;;1.60;1.10;;;10.30;98.20;;;;;;4948614;28;20489;-80
2023/11/12 12:19:44;;;;;;;1.60;1.10;;;10.40;98.20;;;;;;4946543;28;20479;-80
2023/11/12 12:22:12;;;;;;;1.60;1.10;;;10.40;98.20;;;;;;4942576;28;20513;-79
2023/11/12 12:24:40;;;;;;;1.60;1.10;;;10.40;98.20;;;;;;4944853;28;20491;-78
2023/11/12 12:27:09;;;;;;;1.60;1.10;;;10.40;98.20;;;;;;4939439;28;21020;-78
2023/11/12 12:29:38;;;;;;;1.60;1.10;;;10.50;98.20;;;;;;4944305;28;20804;-79
2023/11/12 12:32:17;;;;;;;1.60;1.10;;;10.50;98.20;;;;;;4951013;28;20900;-78
2023/11/12 12:34:49;;;;;;;1.60;1.00;;;10.50;98.20;;;;;;4962525;28;20560;-79
2023/11/12 12:37:21;;;;;;;1.60;1.10;;;10.50;98.20;;;;;;4961655;28;20811;-79
2023/11/12 12:39:57;;;;;;;1.60;1.10;;;10.50;98.20;;;;;;4961728;28;20470;-79
2023/11/12 12:42:26;;;;;;;1.60;1.10;;;10.60;98.20;;;;;;4963706;28;20847;-79
2023/11/12 12:44:54;;;;;;;1.60;1.10;;;10.60;98.20;;;;;;4963035;28;20494;-80
2023/11/12 12:47:33;;;;;;;1.60;1.10;;;10.70;98.20;;;;;;4961326;28;20492;-78
2023/11/12 12:50:05;;;;;;;1.60;1.10;;;10.70;98.20;;;;;;4960515;28;20472;-79
2023/11/12 12:52:33;;;;;;;1.60;1.10;;;10.70;98.20;;;;;;4965617;28;20475;-80
2023/11/12 12:55:00;;;;;;;1.60;1.10;;;10.70;98.20;;;;;;4960957;28;20472;-80
2023/11/12 12:57:27;;;;;;;1.60;1.10;;;10.70;98.20;;;;;;4962164;28;20493;-80
2023/11/12 12:59:55;;;;;;;1.60;1.13;;;10.70;98.20;;;;;;4962339;28;20480;-79